sensor_id;sensor_type;location;lat;lon;timestamp;P1;durP1;ratioP1;P2;durP2;ratioP2
3543;SDS011;1786;52.870;9.578;2022-07-15T00:00:46;13.00;;;2.53;;
3543;SDS011;1786;52.870;9.578;2022-07-15T00:03:12;13.97;;;2.20;;
3543;SDS011;1786;52.870;9.578;2022-07-15T00:05:39;8.60;;;2.87;;
3543;SDS011;1786;52.870;9.578;2022-07-15T00:08:06;13.63;;;2.20;;
3543;SDS011;1786;52.870;9.578;2022-07-15T00:10:32;8.83;;;3.20;;
3543;SDS011;1786;52.870;9.578;2022-07-15T00:12:59;5.70;;;2.40;;
3543;SDS011;1786;52.870;9.578;2022-07-15T00:15:29;5.10;;;2.43;;
3543;SDS011;1786;52.870;9.578;2022-07-15T00:17:57;11.03;;;2.37;;
3543;SDS011;1786;52.870;9.578;2022-07-15T00:20:28;10.40;;;2.63;;
3543;SDS011;1786;52.870;9.578;2022-07-15T00:23:04;8.43;;;2.27;;
3543;SDS011;1786;52.870;9.578;2022-07-15T00:25:32;11.13;;;2.30;;
3543;SDS011;1786;52.870;9.578;2022-07-15T00:28:01;12.10;;;2.47;;
3543;SDS011;1786;52.870;9.578;2022-07-15T00:30:33;9.57;;;2.30;;
3543;SDS011;1786;52.870;9.578;2022-07-15T00:33:03;9.50;;;2.60;;
3543;SDS011;1786;52.870;9.578;2022-07-15T00:35:31;6.20;;;2.60;;
3543;SDS011;1786;52.870;9.578;2022-07-15T00:37:59;9.27;;;2.43;;
3543;SDS011;1786;52.870;9.578;2022-07-15T00:40:28;4.13;;;2.37;;
3543;SDS011;1786;52.870;9.578;2022-07-15T00:42:55;10.30;;;2.53;;
3543;SDS011;1786;52.870;9.578;2022-07-15T00:45:23;11.33;;;2.90;;
3543;SDS011;1786;52.870;9.578;2022-07-15T00:47:56;9.47;;;3.17;;
3543;SDS011;1786;52.870;9.578;2022-07-15T00:50:24;9.47;;;2.80;;
3543;SDS011;1786;52.870;9.578;2022-07-15T00:53:00;23.23;;;3.70;;
3543;SDS011;1786;52.870;9.578;2022-07-15T00:55:30;5.73;;;2.70;;
3543;SDS011;1786;52.870;9.578;2022-07-15T00:58:00;11.40;;;2.87;;
3543;SDS011;1786;52.870;9.578;2022-07-15T01:00:28;12.00;;;3.23;;
3543;SDS011;1786;52.870;9.578;2022-07-15T01:02:57;14.33;;;2.97;;
3543;SDS011;1786;52.870;9.578;2022-07-15T01:05:26;7.10;;;2.63;;
3543;SDS011;1786;52.870;9.578;2022-07-15T01:07:54;9.20;;;2.67;;
3543;SDS011;1786;52.870;9.578;2022-07-15T01:10:21;10.83;;;2.80;;
3543;SDS011;1786;52.870;9.578;2022-07-15T01:12:50;8.70;;;2.67;;
3543;SDS011;1786;52.870;9.578;2022-07-15T01:15:23;7.10;;;2.60;;
3543;SDS011;1786;52.870;9.578;2022-07-15T01:17:52;5.63;;;2.70;;
3543;SDS011;1786;52.870;9.578;2022-07-15T01:20:19;4.33;;;2.60;;
3543;SDS011;1786;52.870;9.578;2022-07-15T01:22:54;11.30;;;2.70;;
3543;SDS011;1786;52.870;9.578;2022-07-15T01:25:27;12.63;;;2.60;;
3543;SDS011;1786;52.870;9.578;2022-07-15T01:27:55;11.23;;;2.90;;
3543;SDS011;1786;52.870;9.578;2022-07-15T01:30:24;10.77;;;2.93;;
3543;SDS011;1786;52.870;9.578;2022-07-15T01:32:51;13.07;;;2.77;;
3543;SDS011;1786;52.870;9.578;2022-07-15T01:35:18;7.43;;;2.60;;
3543;SDS011;1786;52.870;9.578;2022-07-15T01:37:47;9.90;;;2.53;;
3543;SDS011;1786;52.870;9.578;2022-07-15T01:40:15;9.47;;;3.00;;
3543;SDS011;1786;52.870;9.578;2022-07-15T01:42:42;9.80;;;3.40;;
3543;SDS011;1786;52.870;9.578;2022-07-15T01:45:12;8.40;;;2.47;;
3543;SDS011;1786;52.870;9.578;2022-07-15T01:47:43;7.47;;;2.27;;
3543;SDS011;1786;52.870;9.578;2022-07-15T01:50:15;5.73;;;1.90;;
3543;SDS011;1786;52.870;9.578;2022-07-15T01:52:56;6.30;;;2.23;;
3543;SDS011;1786;52.870;9.578;2022-07-15T01:55:25;10.30;;;2.90;;
3543;SDS011;1786;52.870;9.578;2022-07-15T01:57:54;6.90;;;2.80;;
3543;SDS011;1786;52.870;9.578;2022-07-15T02:00:21;8.83;;;3.00;;
3543;SDS011;1786;52.870;9.578;2022-07-15T02:02:50;9.77;;;3.07;;
3543;SDS011;1786;52.870;9.578;2022-07-15T02:05:19;4.40;;;2.23;;
3543;SDS011;1786;52.870;9.578;2022-07-15T02:07:48;2.20;;;1.80;;
3543;SDS011;1786;52.870;9.578;2022-07-15T02:10:17;13.93;;;2.50;;
3543;SDS011;1786;52.870;9.578;2022-07-15T02:12:46;7.27;;;2.07;;
3543;SDS011;1786;52.870;9.578;2022-07-15T02:15:16;11.87;;;2.40;;
3543;SDS011;1786;52.870;9.578;2022-07-15T02:17:49;11.00;;;2.77;;
3543;SDS011;1786;52.870;9.578;2022-07-15T02:20:15;9.47;;;2.30;;
3543;SDS011;1786;52.870;9.578;2022-07-15T02:22:42;9.73;;;2.30;;
3543;SDS011;1786;52.870;9.578;2022-07-15T02:25:08;14.63;;;2.97;;
3543;SDS011;1786;52.870;9.578;2022-07-15T02:27:36;5.57;;;2.40;;
3543;SDS011;1786;52.870;9.578;2022-07-15T02:30:03;6.00;;;2.03;;
3543;SDS011;1786;52.870;9.578;2022-07-15T02:32:34;6.20;;;2.33;;
3543;SDS011;1786;52.870;9.578;2022-07-15T02:35:00;6.60;;;2.40;;
3543;SDS011;1786;52.870;9.578;2022-07-15T02:37:28;6.87;;;1.93;;
3543;SDS011;1786;52.870;9.578;2022-07-15T02:39:55;8.97;;;2.60;;
3543;SDS011;1786;52.870;9.578;2022-07-15T02:42:23;12.97;;;2.40;;
3543;SDS011;1786;52.870;9.578;2022-07-15T02:44:50;16.00;;;2.20;;
3543;SDS011;1786;52.870;9.578;2022-07-15T02:47:17;8.67;;;2.10;;
3543;SDS011;1786;52.870;9.578;2022-07-15T02:49:43;11.30;;;2.70;;
3543;SDS011;1786;52.870;9.578;2022-07-15T02:52:12;9.80;;;2.57;;
3543;SDS011;1786;52.870;9.578;2022-07-15T02:54:43;6.90;;;2.30;;
3543;SDS011;1786;52.870;9.578;2022-07-15T02:57:09;4.63;;;1.73;;
3543;SDS011;1786;52.870;9.578;2022-07-15T02:59:36;13.60;;;2.13;;
3543;SDS011;1786;52.870;9.578;2022-07-15T03:02:03;14.47;;;2.23;;
3543;SDS011;1786;52.870;9.578;2022-07-15T03:04:30;8.33;;;2.47;;
3543;SDS011;1786;52.870;9.578;2022-07-15T03:06:57;21.50;;;2.57;;
3543;SDS011;1786;52.870;9.578;2022-07-15T03:09:24;5.53;;;2.20;;
3543;SDS011;1786;52.870;9.578;2022-07-15T03:11:51;19.33;;;2.43;;
3543;SDS011;1786;52.870;9.578;2022-07-15T03:14:17;4.40;;;1.83;;
3543;SDS011;1786;52.870;9.578;2022-07-15T03:16:46;11.33;;;2.00;;
3543;SDS011;1786;52.870;9.578;2022-07-15T03:19:13;11.50;;;3.77;;
3543;SDS011;1786;52.870;9.578;2022-07-15T03:21:43;11.13;;;1.90;;
3543;SDS011;1786;52.870;9.578;2022-07-15T03:24:11;5.07;;;2.03;;
3543;SDS011;1786;52.870;9.578;2022-07-15T03:26:41;8.03;;;2.20;;
3543;SDS011;1786;52.870;9.578;2022-07-15T03:29:08;7.67;;;1.87;;
3543;SDS011;1786;52.870;9.578;2022-07-15T03:31:37;4.40;;;1.97;;
3543;SDS011;1786;52.870;9.578;2022-07-15T03:34:05;9.37;;;1.93;;
3543;SDS011;1786;52.870;9.578;2022-07-15T03:36:32;12.30;;;2.90;;
3543;SDS011;1786;52.870;9.578;2022-07-15T03:38:58;6.53;;;1.80;;
3543;SDS011;1786;52.870;9.578;2022-07-15T03:41:25;18.30;;;2.40;;
3543;SDS011;1786;52.870;9.578;2022-07-15T03:43:53;5.87;;;1.50;;
3543;SDS011;1786;52.870;9.578;2022-07-15T03:46:19;8.70;;;1.80;;
3543;SDS011;1786;52.870;9.578;2022-07-15T03:48:51;8.57;;;1.87;;
3543;SDS011;1786;52.870;9.578;2022-07-15T03:51:18;8.47;;;1.80;;
3543;SDS011;1786;52.870;9.578;2022-07-15T03:53:45;12.60;;;1.83;;
3543;SDS011;1786;52.870;9.578;2022-07-15T03:56:12;7.57;;;2.70;;
3543;SDS011;1786;52.870;9.578;2022-07-15T03:58:39;6.70;;;2.77;;
3543;SDS011;1786;52.870;9.578;2022-07-15T04:01:06;6.80;;;2.00;;
3543;SDS011;1786;52.870;9.578;2022-07-15T04:03:33;11.87;;;1.83;;
3543;SDS011;1786;52.870;9.578;2022-07-15T04:05:59;6.23;;;2.07;;
3543;SDS011;1786;52.870;9.578;2022-07-15T04:08:26;6.50;;;1.80;;
3543;SDS011;1786;52.870;9.578;2022-07-15T04:10:55;5.47;;;1.70;;
3543;SDS011;1786;52.870;9.578;2022-07-15T04:13:22;15.60;;;2.17;;
3543;SDS011;1786;52.870;9.578;2022-07-15T04:15:50;3.10;;;2.27;;
3543;SDS011;1786;52.870;9.578;2022-07-15T04:18:16;3.70;;;2.20;;
3543;SDS011;1786;52.870;9.578;2022-07-15T04:20:45;6.47;;;2.50;;
3543;SDS011;1786;52.870;9.578;2022-07-15T04:23:11;15.70;;;3.10;;
3543;SDS011;1786;52.870;9.578;2022-07-15T04:25:38;8.07;;;1.60;;
3543;SDS011;1786;52.870;9.578;2022-07-15T04:28:06;15.47;;;2.90;;
3543;SDS011;1786;52.870;9.578;2022-07-15T04:30:33;10.70;;;2.63;;
3543;SDS011;1786;52.870;9.578;2022-07-15T04:33:01;5.83;;;1.67;;
3543;SDS011;1786;52.870;9.578;2022-07-15T04:35:30;9.30;;;1.67;;
3543;SDS011;1786;52.870;9.578;2022-07-15T04:38:01;13.20;;;2.30;;
3543;SDS011;1786;52.870;9.578;2022-07-15T04:40:28;11.20;;;2.10;;
3543;SDS011;1786;52.870;9.578;2022-07-15T04:42:55;7.93;;;2.33;;
3543;SDS011;1786;52.870;9.578;2022-07-15T04:45:23;12.43;;;2.20;;
3543;SDS011;1786;52.870;9.578;2022-07-15T04:47:50;7.83;;;2.40;;
3543;SDS011;1786;52.870;9.578;2022-07-15T04:50:26;9.93;;;1.67;;
3543;SDS011;1786;52.870;9.578;2022-07-15T04:53:11;5.90;;;1.63;;
3543;SDS011;1786;52.870;9.578;2022-07-15T04:55:38;5.50;;;2.43;;
3543;SDS011;1786;52.870;9.578;2022-07-15T04:58:05;3.67;;;1.50;;
3543;SDS011;1786;52.870;9.578;2022-07-15T05:00:31;8.27;;;2.13;;
3543;SDS011;1786;52.870;9.578;2022-07-15T05:02:58;11.07;;;2.53;;
3543;SDS011;1786;52.870;9.578;2022-07-15T05:05:27;9.47;;;1.80;;
3543;SDS011;1786;52.870;9.578;2022-07-15T05:07:55;15.23;;;2.33;;
3543;SDS011;1786;52.870;9.578;2022-07-15T05:10:22;5.47;;;1.73;;
3543;SDS011;1786;52.870;9.578;2022-07-15T05:12:56;9.37;;;1.70;;
3543;SDS011;1786;52.870;9.578;2022-07-15T05:15:23;8.63;;;2.40;;
3543;SDS011;1786;52.870;9.578;2022-07-15T05:17:50;6.33;;;1.70;;
3543;SDS011;1786;52.870;9.578;2022-07-15T05:20:20;6.63;;;2.40;;
3543;SDS011;1786;52.870;9.578;2022-07-15T05:22:49;13.63;;;2.00;;
3543;SDS011;1786;52.870;9.578;2022-07-15T05:25:18;17.17;;;2.00;;
3543;SDS011;1786;52.870;9.578;2022-07-15T05:27:45;13.47;;;2.17;;
3543;SDS011;1786;52.870;9.578;2022-07-15T05:30:12;9.50;;;1.80;;
3543;SDS011;1786;52.870;9.578;2022-07-15T05:32:39;7.07;;;2.10;;
3543;SDS011;1786;52.870;9.578;2022-07-15T05:35:12;6.23;;;1.63;;
3543;SDS011;1786;52.870;9.578;2022-07-15T05:37:41;14.83;;;4.10;;
3543;SDS011;1786;52.870;9.578;2022-07-15T05:40:14;6.93;;;1.83;;
3543;SDS011;1786;52.870;9.578;2022-07-15T05:42:48;8.23;;;1.80;;
3543;SDS011;1786;52.870;9.578;2022-07-15T05:45:16;10.67;;;1.97;;
3543;SDS011;1786;52.870;9.578;2022-07-15T05:47:49;11.63;;;1.70;;
3543;SDS011;1786;52.870;9.578;2022-07-15T05:50:19;4.73;;;1.73;;
3543;SDS011;1786;52.870;9.578;2022-07-15T05:52:47;4.47;;;1.60;;
3543;SDS011;1786;52.870;9.578;2022-07-15T05:55:15;14.17;;;1.53;;
3543;SDS011;1786;52.870;9.578;2022-07-15T05:57:42;7.23;;;1.87;;
3543;SDS011;1786;52.870;9.578;2022-07-15T06:00:12;7.73;;;1.60;;
3543;SDS011;1786;52.870;9.578;2022-07-15T06:02:39;4.20;;;1.30;;
3543;SDS011;1786;52.870;9.578;2022-07-15T06:05:12;7.10;;;1.90;;
3543;SDS011;1786;52.870;9.578;2022-07-15T06:07:43;2.67;;;1.30;;
3543;SDS011;1786;52.870;9.578;2022-07-15T06:10:12;5.77;;;1.40;;
3543;SDS011;1786;52.870;9.578;2022-07-15T06:12:38;8.50;;;2.17;;
3543;SDS011;1786;52.870;9.578;2022-07-15T06:15:05;18.00;;;2.37;;
3543;SDS011;1786;52.870;9.578;2022-07-15T06:17:33;9.30;;;1.70;;
3543;SDS011;1786;52.870;9.578;2022-07-15T06:20:00;7.27;;;1.23;;
3543;SDS011;1786;52.870;9.578;2022-07-15T06:22:36;8.50;;;1.53;;
3543;SDS011;1786;52.870;9.578;2022-07-15T06:25:03;3.80;;;1.43;;
3543;SDS011;1786;52.870;9.578;2022-07-15T06:27:30;7.73;;;1.47;;
3543;SDS011;1786;52.870;9.578;2022-07-15T06:29:57;9.87;;;2.00;;
3543;SDS011;1786;52.870;9.578;2022-07-15T06:32:24;4.00;;;1.50;;
3543;SDS011;1786;52.870;9.578;2022-07-15T06:34:51;7.70;;;1.50;;
3543;SDS011;1786;52.870;9.578;2022-07-15T06:37:19;11.00;;;1.50;;
3543;SDS011;1786;52.870;9.578;2022-07-15T06:39:46;1.60;;;0.90;;
3543;SDS011;1786;52.870;9.578;2022-07-15T06:42:13;2.83;;;0.90;;
3543;SDS011;1786;52.870;9.578;2022-07-15T06:44:40;5.73;;;1.30;;
3543;SDS011;1786;52.870;9.578;2022-07-15T06:47:07;3.93;;;1.20;;
3543;SDS011;1786;52.870;9.578;2022-07-15T06:49:35;4.70;;;0.90;;
3543;SDS011;1786;52.870;9.578;2022-07-15T06:52:02;3.47;;;0.90;;
3543;SDS011;1786;52.870;9.578;2022-07-15T06:54:29;3.23;;;1.07;;
3543;SDS011;1786;52.870;9.578;2022-07-15T06:56:56;4.33;;;0.93;;
3543;SDS011;1786;52.870;9.578;2022-07-15T06:59:24;2.00;;;0.90;;
3543;SDS011;1786;52.870;9.578;2022-07-15T07:01:51;2.13;;;0.90;;
3543;SDS011;1786;52.870;9.578;2022-07-15T07:04:20;6.37;;;1.67;;
3543;SDS011;1786;52.870;9.578;2022-07-15T07:06:48;8.23;;;1.27;;
3543;SDS011;1786;52.870;9.578;2022-07-15T07:09:16;2.07;;;1.00;;
3543;SDS011;1786;52.870;9.578;2022-07-15T07:11:43;4.13;;;1.00;;
3543;SDS011;1786;52.870;9.578;2022-07-15T07:14:10;9.63;;;1.60;;
3543;SDS011;1786;52.870;9.578;2022-07-15T07:16:38;5.60;;;0.87;;
3543;SDS011;1786;52.870;9.578;2022-07-15T07:19:05;3.83;;;0.80;;
3543;SDS011;1786;52.870;9.578;2022-07-15T07:21:32;9.83;;;1.63;;
3543;SDS011;1786;52.870;9.578;2022-07-15T07:23:58;2.10;;;1.17;;
3543;SDS011;1786;52.870;9.578;2022-07-15T07:26:25;13.47;;;1.30;;
3543;SDS011;1786;52.870;9.578;2022-07-15T07:28:52;4.07;;;1.30;;
3543;SDS011;1786;52.870;9.578;2022-07-15T07:31:19;6.53;;;1.63;;
3543;SDS011;1786;52.870;9.578;2022-07-15T07:33:55;5.13;;;1.00;;
3543;SDS011;1786;52.870;9.578;2022-07-15T07:36:24;5.63;;;1.40;;
3543;SDS011;1786;52.870;9.578;2022-07-15T07:38:52;5.53;;;1.10;;
3543;SDS011;1786;52.870;9.578;2022-07-15T07:41:19;4.70;;;1.20;;
3543;SDS011;1786;52.870;9.578;2022-07-15T07:43:46;4.10;;;1.10;;
3543;SDS011;1786;52.870;9.578;2022-07-15T07:46:13;8.20;;;1.40;;
3543;SDS011;1786;52.870;9.578;2022-07-15T07:48:40;3.90;;;1.10;;
3543;SDS011;1786;52.870;9.578;2022-07-15T07:51:07;6.53;;;2.60;;
3543;SDS011;1786;52.870;9.578;2022-07-15T07:53:35;4.07;;;1.20;;
3543;SDS011;1786;52.870;9.578;2022-07-15T07:56:02;6.80;;;1.73;;
3543;SDS011;1786;52.870;9.578;2022-07-15T07:58:29;6.20;;;1.30;;
3543;SDS011;1786;52.870;9.578;2022-07-15T08:00:56;2.93;;;1.10;;
3543;SDS011;1786;52.870;9.578;2022-07-15T08:03:23;16.03;;;1.27;;
3543;SDS011;1786;52.870;9.578;2022-07-15T08:05:49;5.10;;;1.10;;
3543;SDS011;1786;52.870;9.578;2022-07-15T08:08:17;2.33;;;1.03;;
3543;SDS011;1786;52.870;9.578;2022-07-15T08:10:50;3.63;;;1.30;;
3543;SDS011;1786;52.870;9.578;2022-07-15T08:13:19;3.93;;;1.30;;
3543;SDS011;1786;52.870;9.578;2022-07-15T08:15:48;8.30;;;1.40;;
3543;SDS011;1786;52.870;9.578;2022-07-15T08:18:24;2.67;;;1.37;;
3543;SDS011;1786;52.870;9.578;2022-07-15T08:20:52;2.10;;;0.83;;
3543;SDS011;1786;52.870;9.578;2022-07-15T08:23:19;1.70;;;1.00;;
3543;SDS011;1786;52.870;9.578;2022-07-15T08:25:48;6.93;;;1.40;;
3543;SDS011;1786;52.870;9.578;2022-07-15T08:28:16;6.97;;;1.57;;
3543;SDS011;1786;52.870;9.578;2022-07-15T08:30:44;4.50;;;1.23;;
3543;SDS011;1786;52.870;9.578;2022-07-15T08:33:11;3.97;;;1.40;;
3543;SDS011;1786;52.870;9.578;2022-07-15T08:35:38;2.73;;;1.10;;
3543;SDS011;1786;52.870;9.578;2022-07-15T08:38:07;5.03;;;1.20;;
3543;SDS011;1786;52.870;9.578;2022-07-15T08:40:35;2.70;;;1.00;;
3543;SDS011;1786;52.870;9.578;2022-07-15T08:43:08;5.23;;;1.50;;
3543;SDS011;1786;52.870;9.578;2022-07-15T08:45:37;4.67;;;1.10;;
3543;SDS011;1786;52.870;9.578;2022-07-15T08:48:06;5.27;;;1.20;;
3543;SDS011;1786;52.870;9.578;2022-07-15T08:50:33;5.13;;;1.40;;
3543;SDS011;1786;52.870;9.578;2022-07-15T08:53:01;4.63;;;1.00;;
3543;SDS011;1786;52.870;9.578;2022-07-15T08:55:28;6.03;;;1.50;;
3543;SDS011;1786;52.870;9.578;2022-07-15T08:57:55;4.50;;;0.90;;
3543;SDS011;1786;52.870;9.578;2022-07-15T09:00:23;2.67;;;1.10;;
3543;SDS011;1786;52.870;9.578;2022-07-15T09:02:58;2.07;;;1.00;;
3543;SDS011;1786;52.870;9.578;2022-07-15T09:13:24;5.90;;;1.10;;
3543;SDS011;1786;52.870;9.578;2022-07-15T09:16:11;3.03;;;0.90;;
3543;SDS011;1786;52.870;9.578;2022-07-15T09:18:49;7.83;;;1.27;;
3543;SDS011;1786;52.870;9.578;2022-07-15T09:21:24;1.27;;;0.90;;
3543;SDS011;1786;52.870;9.578;2022-07-15T09:23:54;3.30;;;0.90;;
3543;SDS011;1786;52.870;9.578;2022-07-15T09:26:32;6.70;;;1.30;;
3543;SDS011;1786;52.870;9.578;2022-07-15T09:29:00;4.77;;;1.00;;
3543;SDS011;1786;52.870;9.578;2022-07-15T09:31:29;1.23;;;0.70;;
3543;SDS011;1786;52.870;9.578;2022-07-15T09:34:22;3.53;;;0.90;;
3543;SDS011;1786;52.870;9.578;2022-07-15T09:36:51;3.97;;;0.90;;
3543;SDS011;1786;52.870;9.578;2022-07-15T09:39:22;2.47;;;0.90;;
3543;SDS011;1786;52.870;9.578;2022-07-15T09:41:50;5.00;;;0.93;;
3543;SDS011;1786;52.870;9.578;2022-07-15T09:44:25;2.30;;;0.80;;
3543;SDS011;1786;52.870;9.578;2022-07-15T09:46:56;1.77;;;0.97;;
3543;SDS011;1786;52.870;9.578;2022-07-15T09:54:48;1.13;;;0.80;;
3543;SDS011;1786;52.870;9.578;2022-07-15T09:57:16;4.80;;;0.80;;
3543;SDS011;1786;52.870;9.578;2022-07-15T09:59:45;1.60;;;0.70;;
3543;SDS011;1786;52.870;9.578;2022-07-15T10:02:13;2.93;;;0.90;;
3543;SDS011;1786;52.870;9.578;2022-07-15T10:04:41;4.47;;;1.30;;
3543;SDS011;1786;52.870;9.578;2022-07-15T10:07:11;1.30;;;0.70;;
3543;SDS011;1786;52.870;9.578;2022-07-15T10:09:54;2.30;;;0.90;;
3543;SDS011;1786;52.870;9.578;2022-07-15T10:12:33;3.30;;;1.03;;
3543;SDS011;1786;52.870;9.578;2022-07-15T10:15:25;3.50;;;0.83;;
3543;SDS011;1786;52.870;9.578;2022-07-15T10:18:17;1.73;;;0.90;;
3543;SDS011;1786;52.870;9.578;2022-07-15T10:26:37;5.40;;;0.97;;
3543;SDS011;1786;52.870;9.578;2022-07-15T10:29:14;3.90;;;0.67;;
3543;SDS011;1786;52.870;9.578;2022-07-15T10:31:42;4.37;;;0.70;;
3543;SDS011;1786;52.870;9.578;2022-07-15T10:39:23;1.27;;;0.60;;
3543;SDS011;1786;52.870;9.578;2022-07-15T10:41:53;4.63;;;1.20;;
3543;SDS011;1786;52.870;9.578;2022-07-15T10:44:26;3.90;;;1.10;;
3543;SDS011;1786;52.870;9.578;2022-07-15T10:49:38;4.97;;;0.70;;
3543;SDS011;1786;52.870;9.578;2022-07-15T10:57:59;3.57;;;0.70;;
3543;SDS011;1786;52.870;9.578;2022-07-15T11:03:08;2.10;;;0.97;;
3543;SDS011;1786;52.870;9.578;2022-07-15T11:05:34;1.17;;;0.80;;
3543;SDS011;1786;52.870;9.578;2022-07-15T11:08:45;0.80;;;0.77;;
3543;SDS011;1786;52.870;9.578;2022-07-15T11:13:43;2.90;;;0.90;;
3543;SDS011;1786;52.870;9.578;2022-07-15T11:16:12;1.17;;;0.77;;
3543;SDS011;1786;52.870;9.578;2022-07-15T11:18:44;2.20;;;0.93;;
3543;SDS011;1786;52.870;9.578;2022-07-15T11:21:12;2.77;;;0.93;;
3543;SDS011;1786;52.870;9.578;2022-07-15T11:23:40;2.00;;;0.90;;
3543;SDS011;1786;52.870;9.578;2022-07-15T11:26:13;2.70;;;0.80;;
3543;SDS011;1786;52.870;9.578;2022-07-15T11:28:53;0.73;;;0.70;;
3543;SDS011;1786;52.870;9.578;2022-07-15T11:31:22;2.50;;;0.67;;
3543;SDS011;1786;52.870;9.578;2022-07-15T11:33:52;2.57;;;0.70;;
3543;SDS011;1786;52.870;9.578;2022-07-15T11:36:20;2.17;;;0.83;;
3543;SDS011;1786;52.870;9.578;2022-07-15T11:38:49;4.10;;;0.80;;
3543;SDS011;1786;52.870;9.578;2022-07-15T11:41:17;4.93;;;1.00;;
3543;SDS011;1786;52.870;9.578;2022-07-15T11:44:06;5.47;;;0.93;;
3543;SDS011;1786;52.870;9.578;2022-07-15T11:46:53;7.67;;;0.80;;
3543;SDS011;1786;52.870;9.578;2022-07-15T11:49:31;2.83;;;0.90;;
3543;SDS011;1786;52.870;9.578;2022-07-15T11:52:00;1.20;;;0.80;;
3543;SDS011;1786;52.870;9.578;2022-07-15T11:54:28;2.77;;;0.60;;
3543;SDS011;1786;52.870;9.578;2022-07-15T11:56:59;0.70;;;0.70;;
3543;SDS011;1786;52.870;9.578;2022-07-15T11:59:27;1.40;;;0.70;;
3543;SDS011;1786;52.870;9.578;2022-07-15T12:02:11;0.97;;;0.87;;
3543;SDS011;1786;52.870;9.578;2022-07-15T12:04:40;0.90;;;0.60;;
3543;SDS011;1786;52.870;9.578;2022-07-15T12:07:08;0.70;;;0.50;;
3543;SDS011;1786;52.870;9.578;2022-07-15T12:09:41;0.60;;;0.60;;
3543;SDS011;1786;52.870;9.578;2022-07-15T12:12:09;3.33;;;0.60;;
3543;SDS011;1786;52.870;9.578;2022-07-15T12:14:36;1.70;;;0.77;;
3543;SDS011;1786;52.870;9.578;2022-07-15T12:17:03;0.77;;;0.77;;
3543;SDS011;1786;52.870;9.578;2022-07-15T12:19:31;1.47;;;0.70;;
3543;SDS011;1786;52.870;9.578;2022-07-15T12:22:03;1.23;;;0.80;;
3543;SDS011;1786;52.870;9.578;2022-07-15T12:24:39;3.33;;;0.80;;
3543;SDS011;1786;52.870;9.578;2022-07-15T12:27:08;1.40;;;0.60;;
3543;SDS011;1786;52.870;9.578;2022-07-15T12:29:35;4.27;;;0.60;;
3543;SDS011;1786;52.870;9.578;2022-07-15T12:32:21;0.93;;;0.70;;
3543;SDS011;1786;52.870;9.578;2022-07-15T12:34:52;0.70;;;0.70;;
3543;SDS011;1786;52.870;9.578;2022-07-15T12:39:52;0.50;;;0.50;;
3543;SDS011;1786;52.870;9.578;2022-07-15T12:42:20;0.90;;;0.90;;
3543;SDS011;1786;52.870;9.578;2022-07-15T12:44:58;1.37;;;0.60;;
3543;SDS011;1786;52.870;9.578;2022-07-15T12:50:28;7.67;;;0.60;;
3543;SDS011;1786;52.870;9.578;2022-07-15T12:52:56;1.17;;;0.60;;
3543;SDS011;1786;52.870;9.578;2022-07-15T12:55:24;2.10;;;0.50;;
3543;SDS011;1786;52.870;9.578;2022-07-15T12:58:02;2.43;;;0.50;;
3543;SDS011;1786;52.870;9.578;2022-07-15T13:00:33;1.20;;;0.73;;
3543;SDS011;1786;52.870;9.578;2022-07-15T13:05:56;0.60;;;0.60;;
3543;SDS011;1786;52.870;9.578;2022-07-15T13:08:26;3.43;;;0.90;;
3543;SDS011;1786;52.870;9.578;2022-07-15T13:10:55;2.67;;;1.10;;
3543;SDS011;1786;52.870;9.578;2022-07-15T13:13:24;4.53;;;0.77;;
3543;SDS011;1786;52.870;9.578;2022-07-15T13:15:52;0.60;;;0.60;;
3543;SDS011;1786;52.870;9.578;2022-07-15T13:18:20;1.80;;;0.70;;
3543;SDS011;1786;52.870;9.578;2022-07-15T13:20:48;0.90;;;0.60;;
3543;SDS011;1786;52.870;9.578;2022-07-15T13:23:14;2.50;;;0.90;;
3543;SDS011;1786;52.870;9.578;2022-07-15T13:25:41;1.20;;;0.73;;
3543;SDS011;1786;52.870;9.578;2022-07-15T13:28:08;1.70;;;0.90;;
3543;SDS011;1786;52.870;9.578;2022-07-15T13:30:36;3.13;;;0.73;;
3543;SDS011;1786;52.870;9.578;2022-07-15T13:33:04;1.13;;;0.67;;
3543;SDS011;1786;52.870;9.578;2022-07-15T13:35:32;5.47;;;1.03;;
3543;SDS011;1786;52.870;9.578;2022-07-15T13:37:58;4.73;;;0.63;;
3543;SDS011;1786;52.870;9.578;2022-07-15T13:40:25;0.70;;;0.70;;
3543;SDS011;1786;52.870;9.578;2022-07-15T13:42:52;1.03;;;0.63;;
3543;SDS011;1786;52.870;9.578;2022-07-15T13:45:19;0.73;;;0.73;;
3543;SDS011;1786;52.870;9.578;2022-07-15T13:47:46;0.50;;;0.50;;
3543;SDS011;1786;52.870;9.578;2022-07-15T13:50:12;1.80;;;0.80;;
3543;SDS011;1786;52.870;9.578;2022-07-15T13:52:58;1.13;;;0.60;;
3543;SDS011;1786;52.870;9.578;2022-07-15T13:55:26;1.63;;;0.77;;
3543;SDS011;1786;52.870;9.578;2022-07-15T13:57:54;0.93;;;0.93;;
3543;SDS011;1786;52.870;9.578;2022-07-15T14:00:22;0.60;;;0.60;;
3543;SDS011;1786;52.870;9.578;2022-07-15T14:02:51;0.70;;;0.70;;
3543;SDS011;1786;52.870;9.578;2022-07-15T14:05:19;0.87;;;0.80;;
3543;SDS011;1786;52.870;9.578;2022-07-15T14:07:48;0.93;;;0.70;;
3543;SDS011;1786;52.870;9.578;2022-07-15T14:10:14;2.03;;;0.90;;
3543;SDS011;1786;52.870;9.578;2022-07-15T14:12:41;0.80;;;0.80;;
3543;SDS011;1786;52.870;9.578;2022-07-15T14:15:09;0.80;;;0.60;;
3543;SDS011;1786;52.870;9.578;2022-07-15T14:17:36;7.57;;;1.03;;
3543;SDS011;1786;52.870;9.578;2022-07-15T14:20:03;6.70;;;1.00;;
3543;SDS011;1786;52.870;9.578;2022-07-15T14:22:30;3.17;;;1.07;;
3543;SDS011;1786;52.870;9.578;2022-07-15T14:24:58;2.87;;;1.20;;
3543;SDS011;1786;52.870;9.578;2022-07-15T14:27:31;0.90;;;0.70;;
3543;SDS011;1786;52.870;9.578;2022-07-15T14:29:58;0.80;;;0.80;;
3543;SDS011;1786;52.870;9.578;2022-07-15T14:32:33;2.93;;;0.70;;
3543;SDS011;1786;52.870;9.578;2022-07-15T14:35:00;1.43;;;1.00;;
3543;SDS011;1786;52.870;9.578;2022-07-15T14:37:27;0.77;;;0.70;;
3543;SDS011;1786;52.870;9.578;2022-07-15T14:40:00;0.60;;;0.60;;
3543;SDS011;1786;52.870;9.578;2022-07-15T14:42:28;5.23;;;1.30;;
3543;SDS011;1786;52.870;9.578;2022-07-15T14:44:54;0.93;;;0.73;;
3543;SDS011;1786;52.870;9.578;2022-07-15T14:47:21;2.10;;;0.80;;
3543;SDS011;1786;52.870;9.578;2022-07-15T14:49:48;3.93;;;1.00;;
3543;SDS011;1786;52.870;9.578;2022-07-15T14:52:15;3.43;;;0.83;;
3543;SDS011;1786;52.870;9.578;2022-07-15T14:54:41;2.70;;;1.00;;
3543;SDS011;1786;52.870;9.578;2022-07-15T14:57:08;4.30;;;1.43;;
3543;SDS011;1786;52.870;9.578;2022-07-15T14:59:36;0.97;;;0.87;;
3543;SDS011;1786;52.870;9.578;2022-07-15T15:02:04;1.50;;;1.07;;
3543;SDS011;1786;52.870;9.578;2022-07-15T15:04:32;1.17;;;0.80;;
3543;SDS011;1786;52.870;9.578;2022-07-15T15:06:59;0.73;;;0.73;;
3543;SDS011;1786;52.870;9.578;2022-07-15T15:09:26;2.73;;;1.00;;
3543;SDS011;1786;52.870;9.578;2022-07-15T15:11:53;4.50;;;0.90;;
3543;SDS011;1786;52.870;9.578;2022-07-15T15:14:20;2.60;;;0.70;;
3543;SDS011;1786;52.870;9.578;2022-07-15T15:16:47;1.57;;;1.10;;
3543;SDS011;1786;52.870;9.578;2022-07-15T15:19:32;1.83;;;0.80;;
3543;SDS011;1786;52.870;9.578;2022-07-15T15:21:59;1.47;;;0.90;;
3543;SDS011;1786;52.870;9.578;2022-07-15T15:24:26;1.13;;;0.70;;
3543;SDS011;1786;52.870;9.578;2022-07-15T15:26:53;1.33;;;0.90;;
3543;SDS011;1786;52.870;9.578;2022-07-15T15:29:21;1.27;;;0.80;;
3543;SDS011;1786;52.870;9.578;2022-07-15T15:31:47;0.70;;;0.70;;
3543;SDS011;1786;52.870;9.578;2022-07-15T15:34:15;2.60;;;0.80;;
3543;SDS011;1786;52.870;9.578;2022-07-15T15:36:43;0.73;;;0.63;;
3543;SDS011;1786;52.870;9.578;2022-07-15T15:39:10;1.67;;;0.90;;
3543;SDS011;1786;52.870;9.578;2022-07-15T15:41:38;0.80;;;0.80;;
3543;SDS011;1786;52.870;9.578;2022-07-15T15:44:05;2.87;;;1.17;;
3543;SDS011;1786;52.870;9.578;2022-07-15T15:46:32;0.77;;;0.77;;
3543;SDS011;1786;52.870;9.578;2022-07-15T15:48:59;1.90;;;0.77;;
3543;SDS011;1786;52.870;9.578;2022-07-15T15:51:26;0.60;;;0.60;;
3543;SDS011;1786;52.870;9.578;2022-07-15T15:53:53;1.90;;;0.70;;
3543;SDS011;1786;52.870;9.578;2022-07-15T15:56:20;1.20;;;1.10;;
3543;SDS011;1786;52.870;9.578;2022-07-15T15:58:47;0.63;;;0.63;;
3543;SDS011;1786;52.870;9.578;2022-07-15T16:01:14;0.70;;;0.70;;
3543;SDS011;1786;52.870;9.578;2022-07-15T16:03:41;8.00;;;0.80;;
3543;SDS011;1786;52.870;9.578;2022-07-15T16:06:08;2.10;;;0.80;;
3543;SDS011;1786;52.870;9.578;2022-07-15T16:08:36;2.00;;;0.83;;
3543;SDS011;1786;52.870;9.578;2022-07-15T16:11:04;0.70;;;0.70;;